sensor_id;sensor_type;location;lat;lon;timestamp;temperature;humidity
17815;DHT22;9031;50.974;11.330;2023-08-07T00:00:54;14.20;99.90
17815;DHT22;9031;50.974;11.330;2023-08-07T00:03:20;14.20;99.90
17815;DHT22;9031;50.974;11.330;2023-08-07T00:05:48;14.20;99.90
17815;DHT22;9031;50.974;11.330;2023-08-07T00:08:14;14.20;99.90
17815;DHT22;9031;50.974;11.330;2023-08-07T00:10:40;14.20;99.90
17815;DHT22;9031;50.974;11.330;2023-08-07T00:13:06;14.20;99.90
17815;DHT22;9031;50.974;11.330;2023-08-07T00:15:31;14.30;99.90
17815;DHT22;9031;50.974;11.330;2023-08-07T00:17:59;14.30;99.90
17815;DHT22;9031;50.974;11.330;2023-08-07T00:20:24;14.30;99.90
17815;DHT22;9031;50.974;11.330;2023-08-07T00:22:50;14.30;99.90
17815;DHT22;9031;50.974;11.330;2023-08-07T00:25:15;14.30;99.90
17815;DHT22;9031;50.974;11.330;2023-08-07T00:27:40;14.30;99.90
17815;DHT22;9031;50.974;11.330;2023-08-07T00:30:07;14.20;99.90
17815;DHT22;9031;50.974;11.330;2023-08-07T00:32:32;14.20;99.90
17815;DHT22;9031;50.974;11.330;2023-08-07T00:34:58;14.20;99.90
17815;DHT22;9031;50.974;11.330;2023-08-07T00:37:23;14.30;99.90
17815;DHT22;9031;50.974;11.330;2023-08-07T00:39:49;14.30;99.90
17815;DHT22;9031;50.974;11.330;2023-08-07T00:42:14;14.20;99.90
17815;DHT22;9031;50.974;11.330;2023-08-07T00:44:40;14.30;99.90
17815;DHT22;9031;50.974;11.330;2023-08-07T00:47:06;14.30;99.90
17815;DHT22;9031;50.974;11.330;2023-08-07T00:49:32;14.30;99.90
17815;DHT22;9031;50.974;11.330;2023-08-07T00:51:58;14.20;99.90
17815;DHT22;9031;50.974;11.330;2023-08-07T00:54:25;14.20;99.90
17815;DHT22;9031;50.974;11.330;2023-08-07T00:56:50;14.30;99.90
17815;DHT22;9031;50.974;11.330;2023-08-07T00:59:16;14.30;99.90
17815;DHT22;9031;50.974;11.330;2023-08-07T01:01:42;14.20;99.90
17815;DHT22;9031;50.974;11.330;2023-08-07T01:04:07;14.20;99.90
17815;DHT22;9031;50.974;11.330;2023-08-07T01:06:33;14.20;99.90
17815;DHT22;9031;50.974;11.330;2023-08-07T01:08:58;14.20;99.90
17815;DHT22;9031;50.974;11.330;2023-08-07T01:11:34;14.10;99.90
17815;DHT22;9031;50.974;11.330;2023-08-07T01:16:47;14.20;99.90
17815;DHT22;9031;50.974;11.330;2023-08-07T01:19:23;14.20;99.90
17815;DHT22;9031;50.974;11.330;2023-08-07T01:21:50;14.20;99.90
17815;DHT22;9031;50.974;11.330;2023-08-07T01:24:15;14.20;99.90
17815;DHT22;9031;50.974;11.330;2023-08-07T01:26:44;14.20;99.90
17815;DHT22;9031;50.974;11.330;2023-08-07T01:29:17;14.20;99.90
17815;DHT22;9031;50.974;11.330;2023-08-07T01:31:47;14.20;99.90
17815;DHT22;9031;50.974;11.330;2023-08-07T01:34:17;14.20;99.90
17815;DHT22;9031;50.974;11.330;2023-08-07T01:36:45;14.10;99.90
17815;DHT22;9031;50.974;11.330;2023-08-07T01:39:12;14.10;99.90
17815;DHT22;9031;50.974;11.330;2023-08-07T01:41:38;14.10;99.90
17815;DHT22;9031;50.974;11.330;2023-08-07T01:44:05;14.10;99.90
17815;DHT22;9031;50.974;11.330;2023-08-07T01:46:30;14.10;99.90
17815;DHT22;9031;50.974;11.330;2023-08-07T01:48:56;14.10;99.90
17815;DHT22;9031;50.974;11.330;2023-08-07T01:51:21;14.00;99.90
17815;DHT22;9031;50.974;11.330;2023-08-07T01:53:47;14.00;99.90
17815;DHT22;9031;50.974;11.330;2023-08-07T01:56:13;14.00;99.90
17815;DHT22;9031;50.974;11.330;2023-08-07T01:58:38;14.00;99.90
17815;DHT22;9031;50.974;11.330;2023-08-07T02:01:04;14.00;99.90
17815;DHT22;9031;50.974;11.330;2023-08-07T02:03:29;14.00;99.90
17815;DHT22;9031;50.974;11.330;2023-08-07T02:05:55;14.00;99.90
17815;DHT22;9031;50.974;11.330;2023-08-07T02:08:20;14.00;99.90
17815;DHT22;9031;50.974;11.330;2023-08-07T02:10:46;14.00;99.90
17815;DHT22;9031;50.974;11.330;2023-08-07T02:13:11;14.00;99.90
17815;DHT22;9031;50.974;11.330;2023-08-07T02:15:37;14.00;99.90
17815;DHT22;9031;50.974;11.330;2023-08-07T02:18:02;14.00;99.90
17815;DHT22;9031;50.974;11.330;2023-08-07T02:20:28;13.90;99.90
17815;DHT22;9031;50.974;11.330;2023-08-07T02:22:53;13.90;99.90
17815;DHT22;9031;50.974;11.330;2023-08-07T02:25:19;13.80;99.90
17815;DHT22;9031;50.974;11.330;2023-08-07T02:27:44;13.70;99.90
17815;DHT22;9031;50.974;11.330;2023-08-07T02:30:10;13.70;99.90
17815;DHT22;9031;50.974;11.330;2023-08-07T02:32:35;13.70;99.90
17815;DHT22;9031;50.974;11.330;2023-08-07T02:35:01;13.70;99.90
17815;DHT22;9031;50.974;11.330;2023-08-07T02:37:26;13.70;99.90
17815;DHT22;9031;50.974;11.330;2023-08-07T02:39:52;13.70;99.90
17815;DHT22;9031;50.974;11.330;2023-08-07T02:42:19;13.70;99.90
17815;DHT22;9031;50.974;11.330;2023-08-07T02:44:44;13.70;99.90
17815;DHT22;9031;50.974;11.330;2023-08-07T02:47:10;13.80;99.90
17815;DHT22;9031;50.974;11.330;2023-08-07T02:49:35;13.70;99.90
17815;DHT22;9031;50.974;11.330;2023-08-07T02:52:01;13.80;99.90
17815;DHT22;9031;50.974;11.330;2023-08-07T02:54:26;13.70;99.90
17815;DHT22;9031;50.974;11.330;2023-08-07T02:56:52;13.70;99.90
17815;DHT22;9031;50.974;11.330;2023-08-07T02:59:17;13.70;99.90
17815;DHT22;9031;50.974;11.330;2023-08-07T03:01:44;13.70;99.90
17815;DHT22;9031;50.974;11.330;2023-08-07T03:04:09;13.60;99.90
17815;DHT22;9031;50.974;11.330;2023-08-07T03:06:35;13.60;99.90
17815;DHT22;9031;50.974;11.330;2023-08-07T03:09:01;13.60;99.90
17815;DHT22;9031;50.974;11.330;2023-08-07T03:11:26;13.60;99.90
17815;DHT22;9031;50.974;11.330;2023-08-07T03:13:52;13.60;99.90
17815;DHT22;9031;50.974;11.330;2023-08-07T03:16:17;13.60;99.90
17815;DHT22;9031;50.974;11.330;2023-08-07T03:18:43;13.60;99.90
17815;DHT22;9031;50.974;11.330;2023-08-07T03:21:08;13.50;99.90
17815;DHT22;9031;50.974;11.330;2023-08-07T03:23:34;13.50;99.90
17815;DHT22;9031;50.974;11.330;2023-08-07T03:26:07;13.50;99.90
17815;DHT22;9031;50.974;11.330;2023-08-07T03:28:33;13.50;99.90
17815;DHT22;9031;50.974;11.330;2023-08-07T03:30:59;13.50;99.90
17815;DHT22;9031;50.974;11.330;2023-08-07T03:33:25;13.40;99.90
17815;DHT22;9031;50.974;11.330;2023-08-07T03:35:50;13.40;99.90
17815;DHT22;9031;50.974;11.330;2023-08-07T03:38:16;13.40;99.90
17815;DHT22;9031;50.974;11.330;2023-08-07T03:40:41;13.40;99.90
17815;DHT22;9031;50.974;11.330;2023-08-07T03:43:07;13.30;99.90
17815;DHT22;9031;50.974;11.330;2023-08-07T03:45:32;13.30;99.90
17815;DHT22;9031;50.974;11.330;2023-08-07T03:47:58;13.40;99.90
17815;DHT22;9031;50.974;11.330;2023-08-07T03:50:23;13.40;99.90
17815;DHT22;9031;50.974;11.330;2023-08-07T03:52:49;13.30;99.90
17815;DHT22;9031;50.974;11.330;2023-08-07T03:55:14;13.40;99.90
17815;DHT22;9031;50.974;11.330;2023-08-07T03:57:40;13.40;99.90
17815;DHT22;9031;50.974;11.330;2023-08-07T04:00:06;13.40;99.90
17815;DHT22;9031;50.974;11.330;2023-08-07T04:02:32;13.40;99.90
17815;DHT22;9031;50.974;11.330;2023-08-07T04:04:58;13.40;99.90
17815;DHT22;9031;50.974;11.330;2023-08-07T04:07:23;13.40;99.90
17815;DHT22;9031;50.974;11.330;2023-08-07T04:09:49;13.30;99.90
17815;DHT22;9031;50.974;11.330;2023-08-07T04:12:14;13.30;99.90
17815;DHT22;9031;50.974;11.330;2023-08-07T04:14:40;13.30;99.90
17815;DHT22;9031;50.974;11.330;2023-08-07T04:17:05;13.30;99.90
17815;DHT22;9031;50.974;11.330;2023-08-07T04:19:31;13.30;99.90
17815;DHT22;9031;50.974;11.330;2023-08-07T04:21:56;13.30;99.90
17815;DHT22;9031;50.974;11.330;2023-08-07T04:24:22;13.30;99.90
17815;DHT22;9031;50.974;11.330;2023-08-07T04:26:47;13.40;99.90
17815;DHT22;9031;50.974;11.330;2023-08-07T04:29:13;13.40;99.90
17815;DHT22;9031;50.974;11.330;2023-08-07T04:31:38;13.50;99.90
17815;DHT22;9031;50.974;11.330;2023-08-07T04:34:04;13.40;99.90
17815;DHT22;9031;50.974;11.330;2023-08-07T04:36:30;13.40;99.90
17815;DHT22;9031;50.974;11.330;2023-08-07T04:38:55;13.50;99.90
17815;DHT22;9031;50.974;11.330;2023-08-07T04:41:21;13.50;99.90
17815;DHT22;9031;50.974;11.330;2023-08-07T04:43:47;13.50;99.90
17815;DHT22;9031;50.974;11.330;2023-08-07T04:46:14;13.50;99.90
17815;DHT22;9031;50.974;11.330;2023-08-07T04:48:40;13.60;99.90
17815;DHT22;9031;50.974;11.330;2023-08-07T04:51:05;13.60;99.90
17815;DHT22;9031;50.974;11.330;2023-08-07T04:53:31;13.60;99.90
17815;DHT22;9031;50.974;11.330;2023-08-07T04:55:56;13.60;99.90
17815;DHT22;9031;50.974;11.330;2023-08-07T04:58:22;13.60;99.90
17815;DHT22;9031;50.974;11.330;2023-08-07T05:00:47;13.60;99.90
17815;DHT22;9031;50.974;11.330;2023-08-07T05:03:13;13.70;99.90
17815;DHT22;9031;50.974;11.330;2023-08-07T05:05:40;13.70;99.90
17815;DHT22;9031;50.974;11.330;2023-08-07T05:08:06;13.70;99.90
17815;DHT22;9031;50.974;11.330;2023-08-07T05:10:31;13.70;99.90
17815;DHT22;9031;50.974;11.330;2023-08-07T05:12:57;13.70;99.90
17815;DHT22;9031;50.974;11.330;2023-08-07T05:15:23;13.80;99.90
17815;DHT22;9031;50.974;11.330;2023-08-07T05:17:50;13.90;99.90
17815;DHT22;9031;50.974;11.330;2023-08-07T05:20:16;13.90;99.90
17815;DHT22;9031;50.974;11.330;2023-08-07T05:22:41;13.80;99.90
17815;DHT22;9031;50.974;11.330;2023-08-07T05:25:07;13.80;99.90
17815;DHT22;9031;50.974;11.330;2023-08-07T05:27:35;13.80;99.90
17815;DHT22;9031;50.974;11.330;2023-08-07T05:30:00;13.90;99.90
17815;DHT22;9031;50.974;11.330;2023-08-07T05:32:26;13.90;99.90
17815;DHT22;9031;50.974;11.330;2023-08-07T05:34:52;13.90;99.90
17815;DHT22;9031;50.974;11.330;2023-08-07T05:37:17;13.90;99.90
17815;DHT22;9031;50.974;11.330;2023-08-07T05:39:43;13.90;99.90
17815;DHT22;9031;50.974;11.330;2023-08-07T05:42:08;14.00;99.90
17815;DHT22;9031;50.974;11.330;2023-08-07T05:44:35;14.00;99.90
17815;DHT22;9031;50.974;11.330;2023-08-07T05:47:01;13.90;99.90
17815;DHT22;9031;50.974;11.330;2023-08-07T05:49:26;14.00;99.90
17815;DHT22;9031;50.974;11.330;2023-08-07T05:51:52;14.00;99.90
17815;DHT22;9031;50.974;11.330;2023-08-07T05:54:18;14.00;99.90
17815;DHT22;9031;50.974;11.330;2023-08-07T05:56:43;14.00;99.90
17815;DHT22;9031;50.974;11.330;2023-08-07T05:59:09;14.00;99.90
17815;DHT22;9031;50.974;11.330;2023-08-07T06:01:34;14.10;99.90
17815;DHT22;9031;50.974;11.330;2023-08-07T06:04:02;14.00;99.90
17815;DHT22;9031;50.974;11.330;2023-08-07T06:06:28;14.10;99.90
17815;DHT22;9031;50.974;11.330;2023-08-07T06:08:54;14.10;99.90
17815;DHT22;9031;50.974;11.330;2023-08-07T06:11:19;14.20;99.90
17815;DHT22;9031;50.974;11.330;2023-08-07T06:13:45;14.20;99.90
17815;DHT22;9031;50.974;11.330;2023-08-07T06:16:11;14.20;99.90
17815;DHT22;9031;50.974;11.330;2023-08-07T06:18:36;14.20;99.90
17815;DHT22;9031;50.974;11.330;2023-08-07T06:21:02;14.30;99.90
17815;DHT22;9031;50.974;11.330;2023-08-07T06:23:29;14.40;99.90
17815;DHT22;9031;50.974;11.330;2023-08-07T06:25:55;14.40;99.90
17815;DHT22;9031;50.974;11.330;2023-08-07T06:28:22;14.50;99.90
17815;DHT22;9031;50.974;11.330;2023-08-07T06:30:48;14.40;99.90
17815;DHT22;9031;50.974;11.330;2023-08-07T06:33:13;14.50;99.90
17815;DHT22;9031;50.974;11.330;2023-08-07T06:35:39;14.50;99.90
17815;DHT22;9031;50.974;11.330;2023-08-07T06:38:05;14.60;99.90
17815;DHT22;9031;50.974;11.330;2023-08-07T06:40:31;14.70;99.90
17815;DHT22;9031;50.974;11.330;2023-08-07T06:42:57;14.80;99.90
17815;DHT22;9031;50.974;11.330;2023-08-07T06:45:22;15.00;99.90
17815;DHT22;9031;50.974;11.330;2023-08-07T06:47:48;15.10;99.90
17815;DHT22;9031;50.974;11.330;2023-08-07T06:50:13;15.10;99.90
17815;DHT22;9031;50.974;11.330;2023-08-07T06:52:39;15.00;99.90
17815;DHT22;9031;50.974;11.330;2023-08-07T06:55:05;15.10;99.90
17815;DHT22;9031;50.974;11.330;2023-08-07T06:57:31;15.10;99.90
17815;DHT22;9031;50.974;11.330;2023-08-07T06:59:56;14.80;99.90
17815;DHT22;9031;50.974;11.330;2023-08-07T07:02:21;14.90;99.90
17815;DHT22;9031;50.974;11.330;2023-08-07T07:04:47;14.90;99.90
17815;DHT22;9031;50.974;11.330;2023-08-07T07:07:13;14.90;99.90
17815;DHT22;9031;50.974;11.330;2023-08-07T07:09:38;15.00;99.90
17815;DHT22;9031;50.974;11.330;2023-08-07T07:12:04;15.00;99.90
17815;DHT22;9031;50.974;11.330;2023-08-07T07:14:29;15.20;99.90
17815;DHT22;9031;50.974;11.330;2023-08-07T07:16:55;15.30;99.90
17815;DHT22;9031;50.974;11.330;2023-08-07T07:19:20;15.30;99.90
17815;DHT22;9031;50.974;11.330;2023-08-07T07:21:46;15.50;99.90
17815;DHT22;9031;50.974;11.330;2023-08-07T07:24:11;15.70;99.90
17815;DHT22;9031;50.974;11.330;2023-08-07T07:26:37;15.70;99.90
17815;DHT22;9031;50.974;11.330;2023-08-07T07:29:02;15.80;99.90
17815;DHT22;9031;50.974;11.330;2023-08-07T07:31:28;15.80;99.90
17815;DHT22;9031;50.974;11.330;2023-08-07T07:33:53;15.60;99.90
17815;DHT22;9031;50.974;11.330;2023-08-07T07:36:19;15.60;99.90
17815;DHT22;9031;50.974;11.330;2023-08-07T07:38:45;15.40;99.90
17815;DHT22;9031;50.974;11.330;2023-08-07T07:41:11;15.40;99.90
17815;DHT22;9031;50.974;11.330;2023-08-07T07:43:37;15.50;99.90
17815;DHT22;9031;50.974;11.330;2023-08-07T07:46:03;16.00;99.90
17815;DHT22;9031;50.974;11.330;2023-08-07T07:48:29;16.70;99.90
17815;DHT22;9031;50.974;11.330;2023-08-07T07:51:04;16.80;99.90
17815;DHT22;9031;50.974;11.330;2023-08-07T07:53:30;16.50;99.90
17815;DHT22;9031;50.974;11.330;2023-08-07T07:55:56;16.50;99.90
17815;DHT22;9031;50.974;11.330;2023-08-07T07:58:21;16.40;99.90
17815;DHT22;9031;50.974;11.330;2023-08-07T08:00:47;16.20;99.90
17815;DHT22;9031;50.974;11.330;2023-08-07T08:03:13;16.40;99.90
17815;DHT22;9031;50.974;11.330;2023-08-07T08:05:39;16.50;99.90
17815;DHT22;9031;50.974;11.330;2023-08-07T08:08:06;16.40;99.90
17815;DHT22;9031;50.974;11.330;2023-08-07T08:10:32;16.40;99.90
17815;DHT22;9031;50.974;11.330;2023-08-07T08:12:59;16.80;99.90
17815;DHT22;9031;50.974;11.330;2023-08-07T08:15:24;17.30;99.90
17815;DHT22;9031;50.974;11.330;2023-08-07T08:17:50;17.50;99.90
17815;DHT22;9031;50.974;11.330;2023-08-07T08:20:17;17.50;99.90
17815;DHT22;9031;50.974;11.330;2023-08-07T08:22:46;17.30;99.90
17815;DHT22;9031;50.974;11.330;2023-08-07T08:25:11;17.00;99.90
17815;DHT22;9031;50.974;11.330;2023-08-07T08:27:38;16.90;99.90
17815;DHT22;9031;50.974;11.330;2023-08-07T08:30:04;16.90;99.90
17815;DHT22;9031;50.974;11.330;2023-08-07T08:32:29;16.90;99.90
17815;DHT22;9031;50.974;11.330;2023-08-07T08:34:55;17.10;99.90
17815;DHT22;9031;50.974;11.330;2023-08-07T08:37:21;17.30;99.90
17815;DHT22;9031;50.974;11.330;2023-08-07T08:39:47;17.40;99.90
17815;DHT22;9031;50.974;11.330;2023-08-07T08:42:12;17.50;99.90
17815;DHT22;9031;50.974;11.330;2023-08-07T08:44:39;17.20;99.90
17815;DHT22;9031;50.974;11.330;2023-08-07T08:47:06;17.10;99.90
17815;DHT22;9031;50.974;11.330;2023-08-07T08:49:40;17.00;99.90
17815;DHT22;9031;50.974;11.330;2023-08-07T08:52:08;17.20;99.90
17815;DHT22;9031;50.974;11.330;2023-08-07T08:54:34;17.20;99.90
17815;DHT22;9031;50.974;11.330;2023-08-07T08:57:01;17.50;99.90
17815;DHT22;9031;50.974;11.330;2023-08-07T08:59:26;17.60;99.90
17815;DHT22;9031;50.974;11.330;2023-08-07T09:01:52;17.60;99.90
17815;DHT22;9031;50.974;11.330;2023-08-07T09:04:18;17.60;99.90
17815;DHT22;9031;50.974;11.330;2023-08-07T09:06:44;17.60;99.90
17815;DHT22;9031;50.974;11.330;2023-08-07T09:09:12;17.40;99.90
17815;DHT22;9031;50.974;11.330;2023-08-07T09:11:43;17.50;99.90
17815;DHT22;9031;50.974;11.330;2023-08-07T09:14:11;17.90;99.90
17815;DHT22;9031;50.974;11.330;2023-08-07T09:16:40;18.00;99.90
17815;DHT22;9031;50.974;11.330;2023-08-07T09:19:06;17.80;99.90
17815;DHT22;9031;50.974;11.330;2023-08-07T09:21:32;17.50;99.90
17815;DHT22;9031;50.974;11.330;2023-08-07T09:23:58;17.30;99.90
17815;DHT22;9031;50.974;11.330;2023-08-07T09:26:23;17.30;99.90
17815;DHT22;9031;50.974;11.330;2023-08-07T09:28:53;17.20;99.90
17815;DHT22;9031;50.974;11.330;2023-08-07T09:31:20;17.20;99.90
17815;DHT22;9031;50.974;11.330;2023-08-07T09:33:49;17.40;99.90
17815;DHT22;9031;50.974;11.330;2023-08-07T09:36:14;17.50;99.90
17815;DHT22;9031;50.974;11.330;2023-08-07T09:38:40;17.50;99.90
17815;DHT22;9031;50.974;11.330;2023-08-07T09:41:05;17.60;99.90
17815;DHT22;9031;50.974;11.330;2023-08-07T09:43:34;17.70;99.90
17815;DHT22;9031;50.974;11.330;2023-08-07T09:46:07;18.10;99.90
17815;DHT22;9031;50.974;11.330;2023-08-07T09:48:40;18.10;99.90
17815;DHT22;9031;50.974;11.330;2023-08-07T09:51:05;18.60;99.90
17815;DHT22;9031;50.974;11.330;2023-08-07T09:53:31;19.00;99.90
17815;DHT22;9031;50.974;11.330;2023-08-07T09:55:57;19.00;99.90
17815;DHT22;9031;50.974;11.330;2023-08-07T09:58:23;18.40;99.90
17815;DHT22;9031;50.974;11.330;2023-08-07T10:00:50;18.30;99.90
17815;DHT22;9031;50.974;11.330;2023-08-07T10:03:16;18.40;99.90
17815;DHT22;9031;50.974;11.330;2023-08-07T10:05:43;18.10;99.90
17815;DHT22;9031;50.974;11.330;2023-08-07T10:08:10;17.90;99.90
17815;DHT22;9031;50.974;11.330;2023-08-07T10:10:37;17.90;99.90
17815;DHT22;9031;50.974;11.330;2023-08-07T10:13:02;18.30;99.90
17815;DHT22;9031;50.974;11.330;2023-08-07T10:15:32;18.00;99.90
17815;DHT22;9031;50.974;11.330;2023-08-07T10:17:58;17.80;99.90
17815;DHT22;9031;50.974;11.330;2023-08-07T10:20:29;17.90;99.90
17815;DHT22;9031;50.974;11.330;2023-08-07T10:23:00;18.90;99.90
17815;DHT22;9031;50.974;11.330;2023-08-07T10:25:28;19.80;99.90
17815;DHT22;9031;50.974;11.330;2023-08-07T10:27:56;19.80;99.90
17815;DHT22;9031;50.974;11.330;2023-08-07T10:30:22;19.80;99.90
17815;DHT22;9031;50.974;11.330;2023-08-07T10:32:49;19.30;99.90
17815;DHT22;9031;50.974;11.330;2023-08-07T10:35:32;19.10;99.90
17815;DHT22;9031;50.974;11.330;2023-08-07T10:38:09;18.30;99.90
17815;DHT22;9031;50.974;11.330;2023-08-07T10:43:19;17.60;99.90
17815;DHT22;9031;50.974;11.330;2023-08-07T10:45:45;17.90;99.90
17815;DHT22;9031;50.974;11.330;2023-08-07T10:48:12;18.50;99.90
17815;DHT22;9031;50.974;11.330;2023-08-07T10:53:36;20.20;99.90
17815;DHT22;9031;50.974;11.330;2023-08-07T10:56:03;20.00;99.90
17815;DHT22;9031;50.974;11.330;2023-08-07T10:58:31;20.30;99.90
17815;DHT22;9031;50.974;11.330;2023-08-07T11:03:55;21.00;99.90
17815;DHT22;9031;50.974;11.330;2023-08-07T11:06:22;19.90;99.90
17815;DHT22;9031;50.974;11.330;2023-08-07T11:08:50;19.30;99.90
17815;DHT22;9031;50.974;11.330;2023-08-07T11:11:16;18.90;99.90
17815;DHT22;9031;50.974;11.330;2023-08-07T11:13:42;19.10;99.90
17815;DHT22;9031;50.974;11.330;2023-08-07T11:16:08;19.30;99.90
17815;DHT22;9031;50.974;11.330;2023-08-07T11:18:33;19.30;99.90
17815;DHT22;9031;50.974;11.330;2023-08-07T11:21:01;18.90;99.90
17815;DHT22;9031;50.974;11.330;2023-08-07T11:23:27;18.60;99.90
17815;DHT22;9031;50.974;11.330;2023-08-07T11:25:53;19.20;99.90
17815;DHT22;9031;50.974;11.330;2023-08-07T11:28:20;20.50;99.90
17815;DHT22;9031;50.974;11.330;2023-08-07T11:30:51;20.80;99.90
17815;DHT22;9031;50.974;11.330;2023-08-07T11:33:23;22.20;99.90
17815;DHT22;9031;50.974;11.330;2023-08-07T11:35:49;22.10;99.90
17815;DHT22;9031;50.974;11.330;2023-08-07T11:38:34;22.50;99.90
17815;DHT22;9031;50.974;11.330;2023-08-07T11:41:04;23.70;99.90
17815;DHT22;9031;50.974;11.330;2023-08-07T11:43:31;23.40;99.90
17815;DHT22;9031;50.974;11.330;2023-08-07T11:45:58;21.00;99.90
17815;DHT22;9031;50.974;11.330;2023-08-07T11:48:29;22.00;99.90
17815;DHT22;9031;50.974;11.330;2023-08-07T11:50:55;23.70;99.90
17815;DHT22;9031;50.974;11.330;2023-08-07T11:53:21;23.80;99.90
17815;DHT22;9031;50.974;11.330;2023-08-07T11:56:04;23.80;99.90
17815;DHT22;9031;50.974;11.330;2023-08-07T11:58:41;24.10;99.90
17815;DHT22;9031;50.974;11.330;2023-08-07T12:01:11;22.70;99.90
17815;DHT22;9031;50.974;11.330;2023-08-07T12:03:38;21.30;99.90
17815;DHT22;9031;50.974;11.330;2023-08-07T12:06:05;20.20;99.90
17815;DHT22;9031;50.974;11.330;2023-08-07T12:08:33;19.50;99.90
17815;DHT22;9031;50.974;11.330;2023-08-07T12:11:05;19.10;99.90
17815;DHT22;9031;50.974;11.330;2023-08-07T12:13:31;18.80;99.90
17815;DHT22;9031;50.974;11.330;2023-08-07T12:15:57;18.40;99.90
17815;DHT22;9031;50.974;11.330;2023-08-07T12:18:24;18.20;99.90
17815;DHT22;9031;50.974;11.330;2023-08-07T12:20:51;17.80;99.90
17815;DHT22;9031;50.974;11.330;2023-08-07T12:23:21;17.50;99.90
17815;DHT22;9031;50.974;11.330;2023-08-07T12:25:47;17.00;99.90
17815;DHT22;9031;50.974;11.330;2023-08-07T12:28:13;16.40;99.90
17815;DHT22;9031;50.974;11.330;2023-08-07T12:30:38;16.10;99.90
17815;DHT22;9031;50.974;11.330;2023-08-07T12:33:04;16.80;99.90
17815;DHT22;9031;50.974;11.330;2023-08-07T12:35:31;18.60;99.90
17815;DHT22;9031;50.974;11.330;2023-08-07T12:37:57;19.40;99.90
17815;DHT22;9031;50.974;11.330;2023-08-07T12:40:23;19.90;99.90
17815;DHT22;9031;50.974;11.330;2023-08-07T12:42:49;19.70;99.90
17815;DHT22;9031;50.974;11.330;2023-08-07T12:45:15;19.10;99.90
17815;DHT22;9031;50.974;11.330;2023-08-07T12:47:42;19.20;99.90
17815;DHT22;9031;50.974;11.330;2023-08-07T12:50:08;19.90;99.90
17815;DHT22;9031;50.974;11.330;2023-08-07T12:52:34;20.70;99.90
17815;DHT22;9031;50.974;11.330;2023-08-07T12:54:59;20.50;99.90
17815;DHT22;9031;50.974;11.330;2023-08-07T12:57:26;19.60;99.90
17815;DHT22;9031;50.974;11.330;2023-08-07T12:59:51;20.10;99.90
17815;DHT22;9031;50.974;11.330;2023-08-07T13:02:17;19.50;99.90
17815;DHT22;9031;50.974;11.330;2023-08-07T13:04:42;18.90;99.90
17815;DHT22;9031;50.974;11.330;2023-08-07T13:07:08;18.30;99.90
17815;DHT22;9031;50.974;11.330;2023-08-07T13:09:33;17.70;99.90
17815;DHT22;9031;50.974;11.330;2023-08-07T13:11:59;17.10;99.90
17815;DHT22;9031;50.974;11.330;2023-08-07T13:14:24;16.70;99.90
17815;DHT22;9031;50.974;11.330;2023-08-07T13:16:50;16.60;99.90
17815;DHT22;9031;50.974;11.330;2023-08-07T13:19:16;16.40;99.90
17815;DHT22;9031;50.974;11.330;2023-08-07T13:21:42;16.50;99.90
17815;DHT22;9031;50.974;11.330;2023-08-07T13:24:07;17.60;99.90
17815;DHT22;9031;50.974;11.330;2023-08-07T13:26:33;18.30;99.90
17815;DHT22;9031;50.974;11.330;2023-08-07T13:28:58;18.60;99.90
17815;DHT22;9031;50.974;11.330;2023-08-07T13:31:24;18.50;99.90
17815;DHT22;9031;50.974;11.330;2023-08-07T13:33:49;18.40;99.90
17815;DHT22;9031;50.974;11.330;2023-08-07T13:36:15;18.30;99.90
17815;DHT22;9031;50.974;11.330;2023-08-07T13:38:40;18.50;99.90
17815;DHT22;9031;50.974;11.330;2023-08-07T13:41:06;18.90;99.90
17815;DHT22;9031;50.974;11.330;2023-08-07T13:43:32;19.10;99.90
17815;DHT22;9031;50.974;11.330;2023-08-07T13:45:57;19.70;99.90
17815;DHT22;9031;50.974;11.330;2023-08-07T13:48:23;20.20;99.90
17815;DHT22;9031;50.974;11.330;2023-08-07T13:50:52;20.40;99.90
17815;DHT22;9031;50.974;11.330;2023-08-07T13:53:18;20.80;99.90
17815;DHT22;9031;50.974;11.330;2023-08-07T13:55:45;21.30;99.90
17815;DHT22;9031;50.974;11.330;2023-08-07T13:58:11;21.10;99.90
17815;DHT22;9031;50.974;11.330;2023-08-07T14:00:37;20.30;99.90
17815;DHT22;9031;50.974;11.330;2023-08-07T14:03:03;20.00;99.90
17815;DHT22;9031;50.974;11.330;2023-08-07T14:05:29;20.50;99.90
17815;DHT22;9031;50.974;11.330;2023-08-07T14:07:54;20.70;99.90
17815;DHT22;9031;50.974;11.330;2023-08-07T14:10:22;20.80;99.90
17815;DHT22;9031;50.974;11.330;2023-08-07T14:12:48;20.40;99.90
17815;DHT22;9031;50.974;11.330;2023-08-07T14:15:13;19.80;99.90
17815;DHT22;9031;50.974;11.330;2023-08-07T14:17:39;19.40;99.90
17815;DHT22;9031;50.974;11.330;2023-08-07T14:20:05;19.40;99.90
17815;DHT22;9031;50.974;11.330;2023-08-07T14:22:30;19.20;99.90
17815;DHT22;9031;50.974;11.330;2023-08-07T14:24:57;18.70;99.90
17815;DHT22;9031;50.974;11.330;2023-08-07T14:27:22;18.10;99.90
17815;DHT22;9031;50.974;11.330;2023-08-07T14:29:48;17.80;99.90
17815;DHT22;9031;50.974;11.330;2023-08-07T14:32:13;18.00;99.90
17815;DHT22;9031;50.974;11.330;2023-08-07T14:34:39;17.90;99.90
17815;DHT22;9031;50.974;11.330;2023-08-07T14:37:05;18.20;99.90
17815;DHT22;9031;50.974;11.330;2023-08-07T14:39:30;18.30;99.90
17815;DHT22;9031;50.974;11.330;2023-08-07T14:41:56;18.80;99.90
17815;DHT22;9031;50.974;11.330;2023-08-07T14:44:21;18.50;99.90
17815;DHT22;9031;50.974;11.330;2023-08-07T14:46:47;18.40;99.90
17815;DHT22;9031;50.974;11.330;2023-08-07T14:49:13;18.40;99.90
17815;DHT22;9031;50.974;11.330;2023-08-07T14:51:39;18.00;99.90
17815;DHT22;9031;50.974;11.330;2023-08-07T14:54:04;17.70;99.90
17815;DHT22;9031;50.974;11.330;2023-08-07T14:56:30;16.80;99.90
17815;DHT22;9031;50.974;11.330;2023-08-07T14:58:55;15.80;99.90
17815;DHT22;9031;50.974;11.330;2023-08-07T15:01:21;15.30;99.90
17815;DHT22;9031;50.974;11.330;2023-08-07T15:03:46;14.90;99.90
17815;DHT22;9031;50.974;11.330;2023-08-07T15:06:12;14.80;99.90
17815;DHT22;9031;50.974;11.330;2023-08-07T15:08:37;14.90;99.90
17815;DHT22;9031;50.974;11.330;2023-08-07T15:11:03;15.00;99.90
17815;DHT22;9031;50.974;11.330;2023-08-07T15:13:28;15.50;99.90
17815;DHT22;9031;50.974;11.330;2023-08-07T15:15:54;15.70;99.90
17815;DHT22;9031;50.974;11.330;2023-08-07T15:18:20;15.70;99.90
17815;DHT22;9031;50.974;11.330;2023-08-07T15:20:47;15.80;99.90
17815;DHT22;9031;50.974;11.330;2023-08-07T15:23:14;15.60;99.90
17815;DHT22;9031;50.974;11.330;2023-08-07T15:25:39;15.70;99.90
17815;DHT22;9031;50.974;11.330;2023-08-07T15:28:06;16.00;99.90
17815;DHT22;9031;50.974;11.330;2023-08-07T15:30:32;16.10;99.90
17815;DHT22;9031;50.974;11.330;2023-08-07T15:32:58;16.30;99.90
17815;DHT22;9031;50.974;11.330;2023-08-07T15:35:23;16.40;99.90